Fire Weather Observation
Issued by NWS Grand Junction, CO

Home | Current Version | Previous Version | Text Only | Print | Product List | Glossary Off
Versions: 1 2 3 4 5 6 7 8 9 10 11 12 13 14 15 16 17 18 19 20 21 22 23 24 25 26 27 28 29 30 31 32 33 34 35 36 37 38 39 40 41 42 43 44 45 46 47 48 49 50

000
SHUS65 KGJT 222048
FWOGJT

DAILY FIRE WEATHER OBSERVATION
NATIONAL WEATHER SERVICE GRAND JUNCTION CO
212 PM MDT FRI MAY 22 2015

STATE OF THE WEATHER (W)               2
DRY BULB TEMPERATURE                   63   DEGREES FAHRENHEIT
RELATIVE HUMIDITY (RH)                 37   PERCENT
LIGHTNING ACTIVITY LEVEL
  (LAL - MIDNIGHT TO 2 PM)             3
WIND DIRECTION                         360  DEGREES (C IF CALM)
WIND SPEED                             8    MPH
MAX TEMP (2 PM - 2 PM)                 71   DEGREES FAHRENHEIT
MIN TEMP (2 PM - 2 PM)                 48   DEGREES FAHRENHEIT
MAX RH (2 PM - 2 PM)                   93   PERCENT
MIN RH (2 PM - 2 PM)                   26   PERCENT
PCPN DURATION                          5.0  HOURS
PCPN AMT (2 PM - 2 PM)                 0.1  INCHES
LAL (2 PM - 2 PM)                      4

$$

METAR KGJT 221953Z 02007KT 10SM BKN100 17/02 A2989 RMK AO2 LTG
      DSNT W TSE02 SLP078 T01720022


USA.gov is the U.S. government's official web portal to all federal, state and local government web resources and services.